Time;durP1;ratioP1;P1;durP2;ratioP2;P2;SDS_P1;SDS_P2;PMS_P1;PMS_P2;Temp;Humidity;BMP_temperature;BMP_pressure;BME280_temperature;BME280_humidity;BME280_pressure;Samples;Min_cycle;Max_cycle;Signal;HPM_P1;HPM_P2
2021/09/22 00:00:23;;;;;;;;;;;;;;;;;;5093486;28;19924;-73
2021/09/22 00:02:49;;;;;;;;;;;;;;;;;;5093046;28;20298;-73
2021/09/22 00:05:15;;;;;;;;;;;;;;;;;;5093108;28;19938;-73
2021/09/22 00:07:42;;;;;;;;;;;;;;;;;;5092866;28;19931;-73
2021/09/22 00:10:08;;;;;;;;;;;;;;;;;;5093173;28;20382;-73
2021/09/22 00:12:34;;;;;;;;;;;;;;;;;;5092799;28;19924;-73
2021/09/22 00:15:00;;;;;;;;;;;;;;;;;;5093217;28;19928;-73
2021/09/22 00:17:27;;;;;;;;;;;;;;;;;;5092807;28;20271;-73
2021/09/22 00:19:53;;;;;;;;;;;;;;;;;;5092641;28;19924;-73
2021/09/22 00:22:19;;;;;;;;;;;;;;;;;;5092783;28;19931;-73
2021/09/22 00:24:46;;;;;;;;;;;;;;;;;;5092483;28;19930;-73
2021/09/22 00:27:12;;;;;;;;;;;;;;;;;;5092786;28;20401;-73
2021/09/22 00:29:38;;;;;;;;;;;;;;;;;;5092684;28;19924;-73
2021/09/22 00:32:05;;;;;;;;;;;;;;;;;;5092958;28;19924;-73
2021/09/22 00:34:31;;;;;;;;;;;;;;;;;;5092225;28;19928;-73
2021/09/22 00:36:57;;;;;;;;;;;;;;;;;;5093051;28;19924;-73
2021/09/22 00:39:23;;;;;;;;;;;;;;;;;;5092579;28;19924;-73
2021/09/22 00:41:50;;;;;;;;;;;;;;;;;;5092573;28;19924;-73
2021/09/22 00:44:16;;;;;;;;;;;;;;;;;;5092096;28;20290;-73
2021/09/22 00:46:42;;;;;;;;;;;;;;;;;;5092190;28;19924;-73
2021/09/22 00:49:09;;;;;;;;;;;;;;;;;;5092736;28;19924;-73
2021/09/22 00:51:35;;;;;;;;;;;;;;;;;;5092460;28;19931;-73
2021/09/22 00:54:01;;;;;;;;;;;;;;;;;;5092629;28;20018;-72
2021/09/22 00:56:27;;;;;;;;;;;;;;;;;;5092601;28;20290;-73
2021/09/22 00:58:54;;;;;;;;;;;;;;;;;;5092447;28;19924;-73
2021/09/22 01:01:20;;;;;;;;;;;;;;;;;;5092708;28;19931;-72
2021/09/22 01:03:46;;;;;;;;;;;;;;;;;;5092092;28;20378;-73
2021/09/22 01:06:13;;;;;;;;;;;;;;;;;;5092610;28;19985;-73
2021/09/22 01:08:39;;;;;;;;;;;;;;;;;;5092023;28;19924;-72
2021/09/22 01:11:05;;;;;;;;;;;;;;;;;;5092571;28;19924;-73
2021/09/22 01:13:31;;;;;;;;;;;;;;;;;;5091881;28;20374;-73
2021/09/22 01:15:58;;;;;;;;;;;;;;;;;;5092542;28;19924;-72
2021/09/22 01:18:24;;;;;;;;;;;;;;;;;;5092606;28;19924;-73
2021/09/22 01:20:50;;;;;;;;;;;;;;;;;;5091949;28;19924;-73
2021/09/22 01:23:17;;;;;;;;;;;;;;;;;;5091991;28;20023;-72
2021/09/22 01:25:43;;;;;;;;;;;;;;;;;;5092494;28;19929;-73
2021/09/22 01:28:09;;;;;;;;;;;;;;;;;;5092429;28;19924;-73
2021/09/22 01:30:36;;;;;;;;;;;;;;;;;;5091864;28;19924;-73
2021/09/22 01:33:02;;;;;;;;;;;;;;;;;;5092315;28;19929;-73
2021/09/22 01:35:28;;;;;;;;;;;;;;;;;;5091973;28;19924;-73
2021/09/22 01:37:55;;;;;;;;;;;;;;;;;;5092011;28;20393;-73
2021/09/22 01:40:21;;;;;;;;;;;;;;;;;;5092017;28;19924;-73
2021/09/22 01:42:47;;;;;;;;;;;;;;;;;;5092087;28;19931;-73
2021/09/22 01:45:13;;;;;;;;;;;;;;;;;;5091877;28;20385;-73
2021/09/22 01:47:41;;;;;;;;;;;;;;;;;;5091681;28;19924;-73
2021/09/22 01:50:07;;;;;;;;;;;;;;;;;;5092140;28;20044;-73
2021/09/22 01:52:34;;;;;;;;;;;;;;;;;;5091923;28;20022;-73
2021/09/22 01:55:00;;;;;;;;;;;;;;;;;;5091837;28;20397;-73
2021/09/22 01:57:26;;;;;;;;;;;;;;;;;;5094819;28;19924;-73
2021/09/22 01:59:52;;;;;;;;;;;;;;;;;;5095480;28;19928;-73
2021/09/22 02:02:19;;;;;;;;;;;;;;;;;;5096121;28;20401;-72
2021/09/22 02:04:45;;;;;;;;;;;;;;;;;;5095050;28;19934;-73
2021/09/22 02:07:11;;;;;;;;;;;;;;;;;;5095581;28;19930;-73
2021/09/22 02:09:38;;;;;;;;;;;;;;;;;;5094958;28;20294;-73
2021/09/22 02:12:04;;;;;;;;;;;;;;;;;;5095341;28;19924;-73
2021/09/22 02:14:30;;;;;;;;;;;;;;;;;;5095162;28;19951;-73
2021/09/22 02:16:57;;;;;;;;;;;;;;;;;;5095093;28;19924;-73
2021/09/22 02:19:23;;;;;;;;;;;;;;;;;;5095358;28;19927;-73
2021/09/22 02:21:49;;;;;;;;;;;;;;;;;;5094957;28;20369;-73
2021/09/22 02:24:15;;;;;;;;;;;;;;;;;;5094923;28;19931;-73
2021/09/22 02:26:42;;;;;;;;;;;;;;;;;;5095020;28;19947;-73
2021/09/22 02:29:08;;;;;;;;;;;;;;;;;;5094773;28;19930;-73
2021/09/22 02:31:34;;;;;;;;;;;;;;;;;;5094878;28;19924;-73
2021/09/22 02:34:01;;;;;;;;;;;;;;;;;;5094725;28;20374;-73
2021/09/22 02:36:27;;;;;;;;;;;;;;;;;;5094940;28;19931;-73
2021/09/22 02:38:53;;;;;;;;;;;;;;;;;;5094720;28;19928;-73
2021/09/22 02:41:19;;;;;;;;;;;;;;;;;;5094885;28;19924;-73
2021/09/22 02:43:46;;;;;;;;;;;;;;;;;;5094312;28;20301;-74
2021/09/22 02:46:12;;;;;;;;;;;;;;;;;;5094530;28;19924;-73
2021/09/22 02:48:38;;;;;;;;;;;;;;;;;;5094586;28;20348;-74
2021/09/22 02:51:05;;;;;;;;;;;;;;;;;;5094467;28;19924;-73
2021/09/22 02:53:31;;;;;;;;;;;;;;;;;;5094642;28;19924;-74
2021/09/22 02:55:57;;;;;;;;;;;;;;;;;;5094151;28;20324;-74
2021/09/22 02:58:24;;;;;;;;;;;;;;;;;;5094311;28;19928;-73
2021/09/22 03:00:50;;;;;;;;;;;;;;;;;;5094383;28;19931;-73
2021/09/22 03:03:16;;;;;;;;;;;;;;;;;;5094221;28;20406;-73
2021/09/22 03:05:42;;;;;;;;;;;;;;;;;;5094254;28;19931;-73
2021/09/22 03:08:09;;;;;;;;;;;;;;;;;;5093750;28;19924;-73
2021/09/22 03:10:35;;;;;;;;;;;;;;;;;;5093773;28;20294;-73
2021/09/22 03:13:01;;;;;;;;;;;;;;;;;;5094065;28;19931;-73
2021/09/22 03:15:28;;;;;;;;;;;;;;;;;;5094058;28;19924;-73
2021/09/22 03:17:55;;;;;;;;;;;;;;;;;;5094196;28;19928;-73
2021/09/22 03:20:22;;;;;;;;;;;;;;;;;;5094098;28;19974;-73
2021/09/22 03:22:48;;;;;;;;;;;;;;;;;;5093636;28;19928;-73
2021/09/22 03:25:14;;;;;;;;;;;;;;;;;;5093608;28;19982;-74
2021/09/22 03:27:40;;;;;;;;;;;;;;;;;;5093489;28;19924;-73
2021/09/22 03:30:07;;;;;;;;;;;;;;;;;;5093590;28;20374;-73
2021/09/22 03:32:33;;;;;;;;;;;;;;;;;;5093798;28;19932;-73
2021/09/22 03:34:59;;;;;;;;;;;;;;;;;;5093509;28;20271;-73
2021/09/22 03:37:26;;;;;;;;;;;;;;;;;;5093592;28;19924;-73
2021/09/22 03:39:52;;;;;;;;;;;;;;;;;;5093451;28;19947;-73
2021/09/22 03:42:18;;;;;;;;;;;;;;;;;;5093513;28;19924;-73
2021/09/22 03:44:45;;;;;;;;;;;;;;;;;;5093930;28;19928;-72
2021/09/22 03:47:11;;;;;;;;;;;;;;;;;;5093836;28;19946;-73
2021/09/22 03:49:37;;;;;;;;;;;;;;;;;;5093038;28;19930;-73
2021/09/22 03:52:03;;;;;;;;;;;;;;;;;;5093495;28;19931;-73
2021/09/22 03:54:30;;;;;;;;;;;;;;;;;;5093138;28;19924;-73
2021/09/22 03:56:56;;;;;;;;;;;;;;;;;;5093187;28;19931;-73
2021/09/22 03:59:22;;;;;;;;;;;;;;;;;;5093468;28;19924;-73
2021/09/22 04:01:49;;;;;;;;;;;;;;;;;;5093071;28;19928;-73
2021/09/22 04:04:15;;;;;;;;;;;;;;;;;;5093147;28;19928;-73
2021/09/22 04:06:41;;;;;;;;;;;;;;;;;;5092906;28;19924;-73
2021/09/22 04:09:10;;;;;;;;;;;;;;;;;;5093250;28;19930;-73
2021/09/22 04:11:36;;;;;;;;;;;;;;;;;;5092676;28;19930;-73
2021/09/22 04:14:02;;;;;;;;;;;;;;;;;;5092872;28;20385;-73
2021/09/22 04:16:29;;;;;;;;;;;;;;;;;;5092610;28;19930;-73
2021/09/22 04:18:55;;;;;;;;;;;;;;;;;;5092569;28;19928;-73
2021/09/22 04:21:21;;;;;;;;;;;;;;;;;;5092698;28;19924;-73
2021/09/22 04:23:48;;;;;;;;;;;;;;;;;;5092553;28;20124;-74
2021/09/22 04:26:14;;;;;;;;;;;;;;;;;;5093038;28;19924;-74
2021/09/22 04:28:40;;;;;;;;;;;;;;;;;;5092399;28;19924;-74
2021/09/22 04:31:07;;;;;;;;;;;;;;;;;;5092705;28;19924;-74
2021/09/22 04:33:33;;;;;;;;;;;;;;;;;;5092435;28;20397;-74
2021/09/22 04:35:59;;;;;;;;;;;;;;;;;;5092659;28;19924;-74
2021/09/22 04:38:25;;;;;;;;;;;;;;;;;;5093032;28;19934;-74
2021/09/22 04:40:52;;;;;;;;;;;;;;;;;;5092281;28;19931;-74
2021/09/22 04:43:18;;;;;;;;;;;;;;;;;;5092438;28;19931;-74
2021/09/22 04:45:45;;;;;;;;;;;;;;;;;;5092463;28;19934;-74
2021/09/22 04:48:11;;;;;;;;;;;;;;;;;;5092554;28;20396;-74
2021/09/22 04:50:38;;;;;;;;;;;;;;;;;;5092481;28;19932;-73
2021/09/22 04:53:04;;;;;;;;;;;;;;;;;;5092689;28;19924;-74
2021/09/22 04:55:30;;;;;;;;;;;;;;;;;;5091979;28;20518;-74
2021/09/22 04:57:57;;;;;;;;;;;;;;;;;;5092738;28;19924;-74
2021/09/22 05:00:23;;;;;;;;;;;;;;;;;;5092643;28;19933;-74
2021/09/22 05:02:49;;;;;;;;;;;;;;;;;;5092106;28;19930;-74
2021/09/22 05:05:15;;;;;;;;;;;;;;;;;;5092347;28;19928;-74
2021/09/22 05:07:42;;;;;;;;;;;;;;;;;;5092597;28;19924;-74
2021/09/22 05:10:08;;;;;;;;;;;;;;;;;;5092208;28;20386;-74
2021/09/22 05:12:34;;;;;;;;;;;;;;;;;;5092315;28;19932;-74
2021/09/22 05:15:01;;;;;;;;;;;;;;;;;;5092058;28;20271;-75
2021/09/22 05:17:27;;;;;;;;;;;;;;;;;;5092234;28;19924;-73
2021/09/22 05:19:53;;;;;;;;;;;;;;;;;;5092187;28;20022;-73
2021/09/22 05:22:19;;;;;;;;;;;;;;;;;;5092402;28;19931;-74
2021/09/22 05:24:46;;;;;;;;;;;;;;;;;;5091677;28;20417;-73
2021/09/22 05:27:12;;;;;;;;;;;;;;;;;;5092046;28;19931;-74
2021/09/22 05:29:38;;;;;;;;;;;;;;;;;;5092449;28;19930;-72
2021/09/22 05:32:05;;;;;;;;;;;;;;;;;;5095934;28;20496;-73
2021/09/22 05:34:31;;;;;;;;;;;;;;;;;;5095581;28;19931;-73
2021/09/22 05:36:57;;;;;;;;;;;;;;;;;;5095923;28;19924;-74
2021/09/22 05:39:24;;;;;;;;;;;;;;;;;;5095788;28;19931;-73
2021/09/22 05:41:50;;;;;;;;;;;;;;;;;;5095854;28;19924;-73
2021/09/22 05:44:16;;;;;;;;;;;;;;;;;;5095876;28;19928;-73
2021/09/22 05:46:42;;;;;;;;;;;;;;;;;;5095712;28;19928;-73
2021/09/22 05:49:09;;;;;;;;;;;;;;;;;;5095665;28;19924;-73
2021/09/22 05:51:35;;;;;;;;;;;;;;;;;;5095675;28;19924;-73
2021/09/22 05:54:01;;;;;;;;;;;;;;;;;;5095744;28;19924;-73
2021/09/22 05:56:28;;;;;;;;;;;;;;;;;;5095385;28;19924;-72
2021/09/22 05:58:54;;;;;;;;;;;;;;;;;;5095492;28;19924;-74
2021/09/22 06:01:20;;;;;;;;;;;;;;;;;;5095744;28;19924;-73
2021/09/22 06:03:47;;;;;;;;;;;;;;;;;;5095103;28;20389;-73
2021/09/22 06:06:13;;;;;;;;;;;;;;;;;;5095321;28;19924;-73
2021/09/22 06:08:39;;;;;;;;;;;;;;;;;;5095127;28;19924;-72
2021/09/22 06:11:05;;;;;;;;;;;;;;;;;;5095317;28;20409;-73
2021/09/22 06:13:32;;;;;;;;;;;;;;;;;;5094855;28;19931;-73
2021/09/22 06:15:58;;;;;;;;;;;;;;;;;;5095346;28;20286;-72
2021/09/22 06:18:25;;;;;;;;;;;;;;;;;;5095042;28;19930;-72
2021/09/22 06:20:51;;;;;;;;;;;;;;;;;;5095118;28;19924;-71
2021/09/22 06:23:17;;;;;;;;;;;;;;;;;;5094729;28;19935;-71
2021/09/22 06:25:44;;;;;;;;;;;;;;;;;;5095161;28;19924;-71
2021/09/22 06:28:10;;;;;;;;;;;;;;;;;;5095132;28;20259;-71
2021/09/22 06:30:36;;;;;;;;;;;;;;;;;;5095136;28;19924;-72
2021/09/22 06:33:02;;;;;;;;;;;;;;;;;;5095260;28;19924;-72
2021/09/22 06:35:29;;;;;;;;;;;;;;;;;;5094444;28;20271;-72
2021/09/22 06:37:55;;;;;;;;;;;;;;;;;;5094782;28;19924;-72
2021/09/22 06:40:21;;;;;;;;;;;;;;;;;;5094802;28;19930;-72
2021/09/22 06:42:48;;;;;;;;;;;;;;;;;;5093618;28;20679;-72
2021/09/22 06:45:14;;;;;;;;;;;;;;;;;;5094474;28;19924;-72
2021/09/22 06:47:40;;;;;;;;;;;;;;;;;;5094600;28;19924;-73
2021/09/22 06:50:06;;;;;;;;;;;;;;;;;;5094272;28;19930;-73
2021/09/22 06:52:33;;;;;;;;;;;;;;;;;;5094447;28;19924;-73
2021/09/22 06:54:59;;;;;;;;;;;;;;;;;;5094230;28;20291;-73
2021/09/22 06:57:26;;;;;;;;;;;;;;;;;;5094487;28;19924;-73
2021/09/22 06:59:52;;;;;;;;;;;;;;;;;;5093961;28;19924;-72
2021/09/22 07:02:18;;;;;;;;;;;;;;;;;;5094410;28;19928;-73
2021/09/22 07:04:44;;;;;;;;;;;;;;;;;;5094036;28;20298;-73
2021/09/22 07:07:11;;;;;;;;;;;;;;;;;;5094033;28;19930;-73
2021/09/22 07:09:37;;;;;;;;;;;;;;;;;;5094016;28;19924;-75
2021/09/22 07:12:04;;;;;;;;;;;;;;;;;;5094304;28;19924;-74
2021/09/22 07:14:30;;;;;;;;;;;;;;;;;;5093723;28;19924;-78
2021/09/22 07:16:56;;;;;;;;;;;;;;;;;;5093837;28;19931;-75
2021/09/22 07:19:22;;;;;;;;;;;;;;;;;;5094034;28;19924;-75
2021/09/22 07:21:49;;;;;;;;;;;;;;;;;;5093476;28;19928;-74
2021/09/22 07:24:15;;;;;;;;;;;;;;;;;;5093931;28;19931;-76
2021/09/22 07:26:41;;;;;;;;;;;;;;;;;;5093508;28;20389;-75
2021/09/22 07:29:08;;;;;;;;;;;;;;;;;;5094121;28;19928;-77
2021/09/22 07:31:34;;;;;;;;;;;;;;;;;;5093464;28;19928;-75
2021/09/22 07:34:01;;;;;;;;;;;;;;;;;;5094030;28;19924;-75
2021/09/22 07:36:27;;;;;;;;;;;;;;;;;;5093570;28;20367;-75
2021/09/22 07:38:53;;;;;;;;;;;;;;;;;;5093483;28;19931;-75
2021/09/22 07:41:19;;;;;;;;;;;;;;;;;;5093832;28;19924;-73
2021/09/22 07:43:46;;;;;;;;;;;;;;;;;;5093309;28;19924;-75
2021/09/22 07:46:12;;;;;;;;;;;;;;;;;;5093674;28;19925;-75
2021/09/22 07:48:38;;;;;;;;;;;;;;;;;;5093272;28;19928;-76
2021/09/22 07:51:05;;;;;;;;;;;;;;;;;;5093267;28;20407;-75
2021/09/22 07:53:31;;;;;;;;;;;;;;;;;;5092066;28;19931;-75
2021/09/22 07:55:57;;;;;;;;;;;;;;;;;;5093422;28;19924;-75
2021/09/22 07:58:24;;;;;;;;;;;;;;;;;;5093490;28;19924;-73
2021/09/22 08:00:50;;;;;;;;;;;;;;;;;;5093458;28;19924;-71
2021/09/22 08:03:16;;;;;;;;;;;;;;;;;;5093023;28;19924;-73
2021/09/22 08:05:42;;;;;;;;;;;;;;;;;;5093172;28;19924;-73
2021/09/22 08:08:09;;;;;;;;;;;;;;;;;;5093003;28;20298;-72
2021/09/22 08:10:35;;;;;;;;;;;;;;;;;;5092734;28;20348;-73
2021/09/22 08:13:02;;;;;;;;;;;;;;;;;;5092962;28;20381;-73
2021/09/22 08:15:28;;;;;;;;;;;;;;;;;;5092708;28;19924;-73
2021/09/22 08:17:54;;;;;;;;;;;;;;;;;;5092788;28;19924;-71
2021/09/22 08:20:20;;;;;;;;;;;;;;;;;;5093090;28;19931;-72
2021/09/22 08:22:48;;;;;;;;;;;;;;;;;;5092761;28;19930;-73
2021/09/22 08:25:14;;;;;;;;;;;;;;;;;;5092547;28;20367;-73
2021/09/22 08:27:40;;;;;;;;;;;;;;;;;;5092491;28;19924;-73
2021/09/22 08:30:07;;;;;;;;;;;;;;;;;;5092912;28;19924;-73
2021/09/22 08:32:33;;;;;;;;;;;;;;;;;;5092367;28;19924;-73
2021/09/22 08:34:59;;;;;;;;;;;;;;;;;;5092516;28;19928;-73
2021/09/22 08:37:25;;;;;;;;;;;;;;;;;;5092789;28;19924;-73
2021/09/22 08:39:52;;;;;;;;;;;;;;;;;;5092332;28;20293;-73
2021/09/22 08:42:19;;;;;;;;;;;;;;;;;;5092575;28;20127;-73
2021/09/22 08:44:45;;;;;;;;;;;;;;;;;;5092409;28;19934;-71
2021/09/22 08:47:11;;;;;;;;;;;;;;;;;;5092465;28;20404;-73
2021/09/22 08:49:39;;;;;;;;;;;;;;;;;;5092370;28;19932;-73
2021/09/22 08:52:06;;;;;;;;;;;;;;;;;;5092422;28;19924;-73
2021/09/22 08:54:32;;;;;;;;;;;;;;;;;;5092502;28;19924;-73
2021/09/22 08:57:00;;;;;;;;;;;;;;;;;;5092540;28;19931;-73
2021/09/22 08:59:26;;;;;;;;;;;;;;;;;;5092332;28;19932;-73
2021/09/22 09:01:53;;;;;;;;;;;;;;;;;;5092417;28;19925;-73
2021/09/22 09:04:19;;;;;;;;;;;;;;;;;;5092325;28;20366;-74
2021/09/22 09:06:45;;;;;;;;;;;;;;;;;;5096057;28;19930;-72
2021/09/22 09:09:12;;;;;;;;;;;;;;;;;;5096645;28;19924;-72
2021/09/22 09:11:38;;;;;;;;;;;;;;;;;;5096013;28;19924;-72
2021/09/22 09:14:04;;;;;;;;;;;;;;;;;;5096659;28;19932;-73
2021/09/22 09:16:30;;;;;;;;;;;;;;;;;;5096236;28;19931;-73
2021/09/22 09:18:57;;;;;;;;;;;;;;;;;;5096229;28;20409;-73
2021/09/22 09:21:23;;;;;;;;;;;;;;;;;;5096312;28;19928;-73
2021/09/22 09:23:50;;;;;;;;;;;;;;;;;;5095947;28;19927;-73
2021/09/22 09:26:16;;;;;;;;;;;;;;;;;;5096123;28;19931;-73
2021/09/22 09:28:42;;;;;;;;;;;;;;;;;;5096236;28;19931;-73
2021/09/22 09:31:09;;;;;;;;;;;;;;;;;;5096280;28;19924;-73
2021/09/22 09:33:35;;;;;;;;;;;;;;;;;;5095700;28;19924;-73
2021/09/22 09:36:05;;;;;;;;;;;;;;;;;;5096082;28;19924;-73
2021/09/22 09:38:31;;;;;;;;;;;;;;;;;;5095985;28;19931;-73
2021/09/22 09:40:57;;;;;;;;;;;;;;;;;;5096051;28;20386;-73
2021/09/22 09:43:23;;;;;;;;;;;;;;;;;;5095640;28;19924;-72
2021/09/22 09:45:50;;;;;;;;;;;;;;;;;;5095759;28;19928;-73
2021/09/22 09:48:17;;;;;;;;;;;;;;;;;;5095628;28;20267;-73
2021/09/22 09:50:43;;;;;;;;;;;;;;;;;;5095862;28;19924;-74
2021/09/22 09:53:09;;;;;;;;;;;;;;;;;;5095818;28;20386;-74
2021/09/22 09:55:35;;;;;;;;;;;;;;;;;;5095132;28;19924;-72
2021/09/22 09:58:02;;;;;;;;;;;;;;;;;;5095965;28;19931;-73
2021/09/22 10:00:28;;;;;;;;;;;;;;;;;;5095324;28;19924;-73
2021/09/22 10:02:54;;;;;;;;;;;;;;;;;;5095550;28;19932;-73
2021/09/22 10:05:21;;;;;;;;;;;;;;;;;;5095684;28;19935;-73
2021/09/22 10:07:49;;;;;;;;;;;;;;;;;;5095339;28;19924;-73
2021/09/22 10:10:15;;;;;;;;;;;;;;;;;;5095536;28;19924;-71
2021/09/22 10:12:41;;;;;;;;;;;;;;;;;;5095465;28;20047;-73
2021/09/22 10:15:08;;;;;;;;;;;;;;;;;;5095181;28;19925;-73
2021/09/22 10:17:35;;;;;;;;;;;;;;;;;;5094156;28;19924;-74
2021/09/22 10:20:01;;;;;;;;;;;;;;;;;;5094852;28;19932;-72
2021/09/22 10:22:27;;;;;;;;;;;;;;;;;;5094845;28;19924;-72
2021/09/22 10:24:55;;;;;;;;;;;;;;;;;;5094906;28;19924;-72
2021/09/22 10:27:21;;;;;;;;;;;;;;;;;;5095285;28;19931;-72
2021/09/22 10:29:47;;;;;;;;;;;;;;;;;;5094611;28;20401;-72
2021/09/22 10:32:14;;;;;;;;;;;;;;;;;;5094771;28;19924;-72
2021/09/22 10:34:40;;;;;;;;;;;;;;;;;;5094898;28;19932;-71
2021/09/22 10:37:06;;;;;;;;;;;;;;;;;;5094712;28;20397;-72
2021/09/22 10:39:32;;;;;;;;;;;;;;;;;;5094722;28;19924;-72
2021/09/22 10:41:59;;;;;;;;;;;;;;;;;;5094781;28;19924;-72
2021/09/22 10:44:25;;;;;;;;;;;;;;;;;;5094839;28;19924;-73
2021/09/22 10:46:51;;;;;;;;;;;;;;;;;;5094639;28;19928;-71
2021/09/22 10:49:18;;;;;;;;;;;;;;;;;;5094583;28;20287;-73
2021/09/22 10:51:44;;;;;;;;;;;;;;;;;;5094538;28;19924;-70
2021/09/22 10:54:10;;;;;;;;;;;;;;;;;;5094324;28;20294;-70
2021/09/22 10:56:37;;;;;;;;;;;;;;;;;;5094036;28;19924;-71
2021/09/22 10:59:03;;;;;;;;;;;;;;;;;;5094617;28;19924;-71
2021/09/22 11:01:30;;;;;;;;;;;;;;;;;;5094336;28;19967;-71
2021/09/22 11:03:56;;;;;;;;;;;;;;;;;;5094102;28;20379;-71
2021/09/22 11:06:22;;;;;;;;;;;;;;;;;;5094369;28;19928;-71
2021/09/22 11:08:48;;;;;;;;;;;;;;;;;;5094184;28;19928;-70
2021/09/22 11:11:15;;;;;;;;;;;;;;;;;;5094372;28;19931;-71
2021/09/22 11:13:43;;;;;;;;;;;;;;;;;;5093766;28;19935;-72
2021/09/22 11:16:09;;;;;;;;;;;;;;;;;;5093783;28;20366;-71
2021/09/22 11:18:35;;;;;;;;;;;;;;;;;;5093871;28;19931;-71
2021/09/22 11:21:02;;;;;;;;;;;;;;;;;;5093816;28;19974;-72
2021/09/22 11:23:28;;;;;;;;;;;;;;;;;;5093346;28;19931;-71
2021/09/22 11:25:54;;;;;;;;;;;;;;;;;;5094562;28;19931;-69
2021/09/22 11:28:21;;;;;;;;;;;;;;;;;;5093743;28;19924;-72
2021/09/22 11:30:47;;;;;;;;;;;;;;;;;;5093498;28;20289;-72
2021/09/22 11:33:13;;;;;;;;;;;;;;;;;;5093651;28;19930;-72
2021/09/22 11:35:42;;;;;;;;;;;;;;;;;;5092742;28;20389;-72
2021/09/22 11:38:08;;;;;;;;;;;;;;;;;;5093609;28;19924;-72
2021/09/22 11:40:34;;;;;;;;;;;;;;;;;;5093542;28;19932;-72
2021/09/22 11:43:01;;;;;;;;;;;;;;;;;;5093594;28;20409;-72
2021/09/22 11:45:28;;;;;;;;;;;;;;;;;;5093536;28;20366;-72
2021/09/22 11:47:54;;;;;;;;;;;;;;;;;;5093653;28;19924;-72
2021/09/22 11:50:20;;;;;;;;;;;;;;;;;;5093420;28;20375;-72
2021/09/22 11:52:47;;;;;;;;;;;;;;;;;;5093048;28;19924;-72
2021/09/22 11:55:13;;;;;;;;;;;;;;;;;;5093510;28;19930;-72
2021/09/22 11:57:39;;;;;;;;;;;;;;;;;;5092812;28;20296;-72
2021/09/22 12:00:05;;;;;;;;;;;;;;;;;;5093100;28;19931;-72
2021/09/22 12:02:32;;;;;;;;;;;;;;;;;;5092779;28;19934;-72
2021/09/22 12:04:59;;;;;;;;;;;;;;;;;;5093380;28;19931;-72
2021/09/22 12:07:25;;;;;;;;;;;;;;;;;;5093393;28;19931;-72
2021/09/22 12:09:51;;;;;;;;;;;;;;;;;;5092645;28;20366;-72
2021/09/22 12:12:18;;;;;;;;;;;;;;;;;;5093013;28;19925;-72
2021/09/22 12:14:44;;;;;;;;;;;;;;;;;;5092835;28;19924;-73
2021/09/22 12:17:10;;;;;;;;;;;;;;;;;;5092640;28;20382;-73
2021/09/22 12:19:37;;;;;;;;;;;;;;;;;;5092882;28;19924;-73
2021/09/22 12:22:03;;;;;;;;;;;;;;;;;;5092919;28;19930;-72
2021/09/22 12:24:33;;;;;;;;;;;;;;;;;;5092207;28;20362;-72
2021/09/22 12:26:59;;;;;;;;;;;;;;;;;;5092981;28;19993;-73
2021/09/22 12:29:25;;;;;;;;;;;;;;;;;;5092666;28;19931;-72
2021/09/22 12:31:53;;;;;;;;;;;;;;;;;;5092751;28;19924;-72
2021/09/22 12:34:19;;;;;;;;;;;;;;;;;;5092549;28;19924;-72
2021/09/22 12:36:45;;;;;;;;;;;;;;;;;;5092528;28;19928;-72
2021/09/22 12:39:12;;;;;;;;;;;;;;;;;;5092003;28;20286;-72
2021/09/22 12:41:38;;;;;;;;;;;;;;;;;;5092096;28;19924;-72
2021/09/22 12:44:04;;;;;;;;;;;;;;;;;;5092731;28;19931;-72
2021/09/22 12:46:30;;;;;;;;;;;;;;;;;;5092187;28;20382;-72
2021/09/22 12:48:57;;;;;;;;;;;;;;;;;;5092842;28;19932;-73
2021/09/22 12:51:25;;;;;;;;;;;;;;;;;;5092700;28;19928;-73
2021/09/22 12:53:51;;;;;;;;;;;;;;;;;;5092034;28;19924;-72
2021/09/22 12:56:17;;;;;;;;;;;;;;;;;;5092661;28;19930;-72
2021/09/22 12:58:44;;;;;;;;;;;;;;;;;;5092025;28;20393;-72
2021/09/22 13:01:10;;;;;;;;;;;;;;;;;;5092283;28;19924;-71
2021/09/22 13:03:36;;;;;;;;;;;;;;;;;;5092016;28;19928;-72
2021/09/22 13:06:05;;;;;;;;;;;;;;;;;;5092613;28;19928;-72
2021/09/22 13:08:32;;;;;;;;;;;;;;;;;;5092081;28;19924;-71
2021/09/22 13:10:58;;;;;;;;;;;;;;;;;;5092134;28;19924;-71
2021/09/22 13:13:24;;;;;;;;;;;;;;;;;;5092194;28;19931;-71
2021/09/22 13:15:52;;;;;;;;;;;;;;;;;;5093179;28;19924;-71
2021/09/22 13:18:18;;;;;;;;;;;;;;;;;;5092097;28;19924;-72
2021/09/22 13:20:44;;;;;;;;;;;;;;;;;;5091600;28;19931;-72
2021/09/22 13:23:11;;;;;;;;;;;;;;;;;;5092346;28;19924;-72
2021/09/22 13:25:37;;;;;;;;;;;;;;;;;;5092403;28;19924;-72
2021/09/22 13:28:03;;;;;;;;;;;;;;;;;;5092382;28;19928;-73
2021/09/22 13:30:30;;;;;;;;;;;;;;;;;;5092166;28;20285;-72
2021/09/22 13:32:56;;;;;;;;;;;;;;;;;;5091977;28;19924;-72
2021/09/22 13:35:22;;;;;;;;;;;;;;;;;;5092244;28;19924;-72
2021/09/22 13:37:49;;;;;;;;;;;;;;;;;;5091682;28;20290;-72
2021/09/22 13:40:15;;;;;;;;;;;;;;;;;;5092261;28;19930;-72
2021/09/22 13:42:41;;;;;;;;;;;;;;;;;;5091903;28;19930;-73
2021/09/22 13:45:07;;;;;;;;;;;;;;;;;;5092206;28;19947;-72
2021/09/22 13:47:34;;;;;;;;;;;;;;;;;;5092012;28;19935;-74
2021/09/22 13:50:00;;;;;;;;;;;;;;;;;;5092632;28;19930;-75
2021/09/22 13:52:26;;;;;;;;;;;;;;;;;;5095653;28;20111;-72
2021/09/22 13:54:53;;;;;;;;;;;;;;;;;;5095253;28;19924;-72
2021/09/22 13:57:19;;;;;;;;;;;;;;;;;;5095338;28;19924;-73
2021/09/22 13:59:45;;;;;;;;;;;;;;;;;;5095521;28;19935;-73
2021/09/22 14:02:12;;;;;;;;;;;;;;;;;;5095453;28;19924;-73
2021/09/22 14:04:38;;;;;;;;;;;;;;;;;;5095407;28;19924;-73
2021/09/22 14:07:04;;;;;;;;;;;;;;;;;;5095600;28;19934;-73
2021/09/22 14:09:31;;;;;;;;;;;;;;;;;;5095056;28;19924;-72
2021/09/22 14:11:57;;;;;;;;;;;;;;;;;;5095346;28;19930;-73
2021/09/22 14:14:23;;;;;;;;;;;;;;;;;;5095460;28;19930;-73
2021/09/22 14:16:49;;;;;;;;;;;;;;;;;;5094619;28;20387;-73
2021/09/22 14:19:16;;;;;;;;;;;;;;;;;;5095172;28;19924;-73
2021/09/22 14:21:45;;;;;;;;;;;;;;;;;;5095129;28;19924;-73
2021/09/22 14:24:11;;;;;;;;;;;;;;;;;;5094870;28;19946;-73
2021/09/22 14:26:37;;;;;;;;;;;;;;;;;;5094590;28;20373;-73
2021/09/22 14:29:04;;;;;;;;;;;;;;;;;;5095049;28;19924;-73
2021/09/22 14:31:30;;;;;;;;;;;;;;;;;;5094873;28;19924;-73
2021/09/22 14:33:56;;;;;;;;;;;;;;;;;;5095137;28;19924;-73
2021/09/22 14:36:23;;;;;;;;;;;;;;;;;;5095023;28;20438;-73
2021/09/22 14:38:49;;;;;;;;;;;;;;;;;;5094754;28;19928;-73
2021/09/22 14:41:15;;;;;;;;;;;;;;;;;;5094693;28;20302;-73
2021/09/22 14:43:42;;;;;;;;;;;;;;;;;;5094297;28;19932;-73
2021/09/22 14:46:08;;;;;;;;;;;;;;;;;;5094886;28;19925;-73
2021/09/22 14:48:34;;;;;;;;;;;;;;;;;;5094305;28;20263;-73
2021/09/22 14:51:01;;;;;;;;;;;;;;;;;;5094463;28;19930;-73
2021/09/22 14:53:27;;;;;;;;;;;;;;;;;;5094678;28;19930;-72
2021/09/22 14:55:53;;;;;;;;;;;;;;;;;;5094448;28;19973;-72
2021/09/22 14:58:20;;;;;;;;;;;;;;;;;;5094252;28;19938;-73
2021/09/22 15:00:46;;;;;;;;;;;;;;;;;;5094311;28;19928;-74
2021/09/22 15:03:12;;;;;;;;;;;;;;;;;;5093843;28;20386;-73
2021/09/22 15:05:39;;;;;;;;;;;;;;;;;;5094242;28;20408;-73
2021/09/22 15:08:06;;;;;;;;;;;;;;;;;;5094373;28;20062;-73
2021/09/22 15:10:33;;;;;;;;;;;;;;;;;;5093917;28;20457;-71
2021/09/22 15:12:59;;;;;;;;;;;;;;;;;;5094168;28;19924;-73
2021/09/22 15:15:25;;;;;;;;;;;;;;;;;;5093999;28;19928;-72
2021/09/22 15:17:52;;;;;;;;;;;;;;;;;;5093958;28;19924;-73
2021/09/22 15:20:19;;;;;;;;;;;;;;;;;;5094206;28;20309;-73
2021/09/22 15:22:46;;;;;;;;;;;;;;;;;;5093697;28;19935;-73
2021/09/22 15:25:12;;;;;;;;;;;;;;;;;;5093939;28;19930;-72
2021/09/22 15:27:38;;;;;;;;;;;;;;;;;;5093778;28;20302;-73
2021/09/22 15:30:05;;;;;;;;;;;;;;;;;;5093707;28;19924;-72
2021/09/22 15:32:31;;;;;;;;;;;;;;;;;;5093957;28;19930;-72
2021/09/22 15:34:57;;;;;;;;;;;;;;;;;;5093690;28;20374;-72
2021/09/22 15:37:23;;;;;;;;;;;;;;;;;;5093382;28;19928;-73
2021/09/22 15:39:50;;;;;;;;;;;;;;;;;;5093744;28;19924;-73
2021/09/22 15:42:16;;;;;;;;;;;;;;;;;;5093549;28;20396;-73
2021/09/22 15:44:42;;;;;;;;;;;;;;;;;;5093164;28;19924;-73
2021/09/22 15:47:09;;;;;;;;;;;;;;;;;;5094009;28;19924;-73
2021/09/22 15:49:35;;;;;;;;;;;;;;;;;;5093095;28;19930;-72
2021/09/22 15:52:01;;;;;;;;;;;;;;;;;;5093821;28;19931;-73
2021/09/22 15:54:27;;;;;;;;;;;;;;;;;;5093637;28;19924;-73
2021/09/22 15:56:54;;;;;;;;;;;;;;;;;;5093289;28;19924;-73
2021/09/22 15:59:20;;;;;;;;;;;;;;;;;;5093146;28;19924;-73
2021/09/22 16:01:46;;;;;;;;;;;;;;;;;;5093039;28;19981;-73
2021/09/22 16:04:13;;;;;;;;;;;;;;;;;;5093390;28;19924;-73
2021/09/22 16:06:39;;;;;;;;;;;;;;;;;;5093296;28;19924;-73
2021/09/22 16:09:05;;;;;;;;;;;;;;;;;;5092958;28;19924;-73
2021/09/22 16:11:32;;;;;;;;;;;;;;;;;;5093036;28;19924;-73
2021/09/22 16:13:58;;;;;;;;;;;;;;;;;;5093025;28;19930;-73
2021/09/22 16:16:24;;;;;;;;;;;;;;;;;;5092358;28;20294;-73
2021/09/22 16:18:51;;;;;;;;;;;;;;;;;;5092517;28;19931;-73
2021/09/22 16:21:17;;;;;;;;;;;;;;;;;;5092899;28;19927;-73
2021/09/22 16:23:43;;;;;;;;;;;;;;;;;;5092690;28;20279;-73
2021/09/22 16:26:09;;;;;;;;;;;;;;;;;;5092814;28;19924;-72
2021/09/22 16:28:36;;;;;;;;;;;;;;;;;;5092751;28;19931;-72
2021/09/22 16:31:02;;;;;;;;;;;;;;;;;;5092812;28;19931;-72
2021/09/22 16:33:28;;;;;;;;;;;;;;;;;;5092379;28;19930;-72
2021/09/22 16:35:56;;;;;;;;;;;;;;;;;;5092976;28;19924;-72
2021/09/22 16:38:22;;;;;;;;;;;;;;;;;;5092708;28;19928;-73